createdAt,value
2017-06-19T00:12:25.972Z,63.60
2017-06-19T00:14:55.431Z,58.30
2017-06-19T00:17:24.671Z,61.70
2017-06-19T00:19:54.285Z,60.40
2017-06-19T00:22:23.704Z,64.00
2017-06-19T00:24:52.810Z,62.80
2017-06-19T00:27:22.526Z,62.00
2017-06-19T00:29:51.702Z,61.50
2017-06-19T00:32:20.759Z,61.50
2017-06-19T00:34:50.229Z,62.20
2017-06-19T00:37:19.922Z,62.60
2017-06-19T00:39:50.213Z,63.00
2017-06-19T00:42:19.719Z,62.40
2017-06-19T00:44:49.010Z,62.40
2017-06-19T00:47:18.682Z,61.80
2017-06-19T00:49:48.064Z,61.80
2017-06-19T00:52:18.336Z,61.40
2017-06-19T00:54:47.894Z,64.00
2017-06-19T00:57:18.096Z,60.90
2017-06-19T00:59:47.903Z,60.90
2017-06-19T01:02:17.162Z,60.40
2017-06-19T01:04:46.729Z,63.20
2017-06-19T01:07:16.040Z,60.50
2017-06-19T01:09:45.323Z,61.90
2017-06-19T01:12:14.901Z,61.40
2017-06-19T01:14:44.880Z,62.70
2017-06-19T01:17:14.199Z,61.00
2017-06-19T01:19:43.766Z,61.50
2017-06-19T01:22:12.984Z,62.40
2017-06-19T01:24:43.004Z,61.50
2017-06-19T01:27:12.215Z,61.50
2017-06-19T01:29:41.585Z,60.80
2017-06-19T01:32:10.942Z,63.50
2017-06-19T01:34:40.558Z,65.00
2017-06-19T01:37:10.238Z,62.60
2017-06-19T01:39:39.605Z,63.10
2017-06-19T01:42:08.902Z,64.90
2017-06-19T01:44:38.651Z,64.90
2017-06-19T01:47:07.990Z,62.00
2017-06-19T01:49:37.292Z,62.30
2017-06-19T01:52:06.702Z,62.90
2017-06-19T01:54:40.535Z,62.70
2017-06-19T01:57:10.889Z,63.20
2017-06-19T01:59:41.572Z,63.20
2017-06-19T02:02:11.204Z,63.20
2017-06-19T02:04:40.762Z,62.40
2017-06-19T02:07:10.452Z,62.70
2017-06-19T02:09:40.397Z,63.50
2017-06-19T02:12:10.078Z,63.00
2017-06-19T02:14:39.404Z,63.80
2017-06-19T02:17:08.868Z,63.80
2017-06-19T02:19:38.286Z,64.20
2017-06-19T02:22:07.876Z,64.20
2017-06-19T02:24:38.033Z,65.20
2017-06-19T02:27:07.267Z,65.20
2017-06-19T02:29:36.649Z,64.40
2017-06-19T02:32:05.944Z,64.00
2017-06-19T02:34:35.438Z,63.20
2017-06-19T02:37:05.036Z,64.90
2017-06-19T02:39:34.267Z,64.40
2017-06-19T02:42:03.547Z,65.40
2017-06-19T02:44:32.640Z,66.90
2017-06-19T02:47:02.584Z,66.50
2017-06-19T02:49:32.206Z,66.40
2017-06-19T02:52:02.100Z,65.90
2017-06-19T02:54:31.761Z,66.60
2017-06-19T02:57:02.887Z,66.80
2017-06-19T02:59:32.378Z,66.70
2017-06-19T03:02:01.801Z,67.80
2017-06-19T03:04:31.362Z,67.20
2017-06-19T03:07:00.963Z,69.70
2017-06-19T03:09:30.468Z,70.30
2017-06-19T03:11:59.661Z,69.30
2017-06-19T03:14:29.191Z,70.10
2017-06-19T03:16:58.662Z,69.60
2017-06-19T03:19:27.890Z,71.80
2017-06-19T03:21:57.210Z,70.40
2017-06-19T03:24:26.503Z,71.20
2017-06-19T03:26:55.805Z,72.60
2017-06-19T03:29:25.274Z,72.90
2017-06-19T03:31:54.789Z,74.00
2017-06-19T03:34:24.301Z,72.70
2017-06-19T03:36:54.591Z,73.60
2017-06-19T03:39:24.008Z,74.30
2017-06-19T03:41:53.445Z,74.70
2017-06-19T03:44:22.953Z,74.70
2017-06-19T03:46:52.710Z,75.20
2017-06-19T03:49:21.956Z,75.70
2017-06-19T03:51:51.470Z,75.70
2017-06-19T03:54:21.063Z,75.70
2017-06-19T03:56:50.639Z,76.20
2017-06-19T03:59:21.487Z,76.40
2017-06-19T04:01:51.588Z,77.20
2017-06-19T04:04:21.112Z,77.00
2017-06-19T04:06:50.574Z,77.30
2017-06-19T04:09:19.774Z,78.20
2017-06-19T04:11:49.990Z,79.00
2017-06-19T04:14:19.476Z,78.90
2017-06-19T04:16:48.747Z,80.70
2017-06-19T04:19:18.223Z,81.00
2017-06-19T04:21:47.719Z,81.10
2017-06-19T04:24:17.268Z,81.70
2017-06-19T04:26:47.013Z,80.50
2017-06-19T04:29:16.290Z,81.10
2017-06-19T04:31:45.782Z,82.00
2017-06-19T04:34:15.175Z,82.50
2017-06-19T04:36:44.747Z,81.90
2017-06-19T04:39:14.579Z,83.30
2017-06-19T04:41:44.072Z,84.30
2017-06-19T04:44:14.423Z,84.50
2017-06-19T04:46:44.361Z,84.30
2017-06-19T04:49:13.948Z,84.70
2017-06-19T04:51:43.086Z,84.90
2017-06-19T04:54:12.399Z,86.80
2017-06-19T04:56:41.869Z,86.50
2017-06-19T04:59:11.208Z,86.80
2017-06-19T05:01:41.796Z,87.90
2017-06-19T05:04:11.307Z,89.60
2017-06-19T05:06:40.494Z,89.20
2017-06-19T05:09:09.717Z,90.00
2017-06-19T05:11:38.891Z,90.60
2017-06-19T05:14:08.227Z,90.50
2017-06-19T05:16:37.893Z,90.80
2017-06-19T05:19:07.250Z,90.60
2017-06-19T05:21:36.500Z,90.40
2017-06-19T05:24:06.090Z,90.70
2017-06-19T05:26:35.708Z,90.80
2017-06-19T05:29:05.299Z,90.90
2017-06-19T05:31:34.687Z,90.80
2017-06-19T05:34:04.577Z,90.70
2017-06-19T05:36:34.031Z,90.70
2017-06-19T05:39:03.716Z,91.70
2017-06-19T05:41:33.317Z,92.50
2017-06-19T05:44:02.862Z,92.40
2017-06-19T05:46:32.181Z,93.50
2017-06-19T05:49:01.734Z,93.80
2017-06-19T05:51:31.008Z,94.50
2017-06-19T05:54:00.400Z,96.30
2017-06-19T05:56:30.111Z,96.70
2017-06-19T05:58:59.488Z,97.90
2017-06-19T06:01:29.259Z,97.70
2017-06-19T06:03:59.739Z,98.60
2017-06-19T06:06:29.024Z,98.60
2017-06-19T06:08:58.445Z,98.90
2017-06-19T06:11:27.502Z,99.60
2017-06-19T06:13:57.680Z,99.90
2017-06-19T06:16:27.368Z,99.90
2017-06-19T06:18:56.881Z,99.90
2017-06-19T06:21:26.552Z,99.90
2017-06-19T06:23:55.728Z,99.90
2017-06-19T06:26:25.331Z,99.90
2017-06-19T06:28:54.923Z,99.90
2017-06-19T06:31:24.292Z,99.90
2017-06-19T06:33:53.849Z,99.90
2017-06-19T06:36:23.543Z,99.90
2017-06-19T06:38:52.783Z,99.90
2017-06-19T06:41:22.476Z,99.90
2017-06-19T06:43:52.904Z,99.90
2017-06-19T06:46:22.374Z,99.90
2017-06-19T06:48:51.717Z,99.90
2017-06-19T06:51:21.439Z,99.90
2017-06-19T06:53:50.782Z,99.90
2017-06-19T06:56:20.341Z,99.90
2017-06-19T06:58:49.670Z,99.90
2017-06-19T07:01:19.232Z,99.90
2017-06-19T07:03:48.829Z,99.90
2017-06-19T07:06:18.904Z,99.90
2017-06-19T07:08:48.281Z,99.90
2017-06-19T07:11:17.543Z,99.90
2017-06-19T07:13:46.881Z,99.90
2017-06-19T07:16:16.078Z,99.90
2017-06-19T07:18:45.351Z,99.90
2017-06-19T07:21:14.789Z,99.90
2017-06-19T07:23:44.189Z,99.90
2017-06-19T07:26:13.660Z,99.90
2017-06-19T07:28:42.776Z,99.90
2017-06-19T07:31:11.994Z,99.90
2017-06-19T07:33:41.289Z,99.90
2017-06-19T07:36:10.988Z,99.90
2017-06-19T07:38:40.459Z,99.90
2017-06-19T07:41:09.771Z,99.90
2017-06-19T07:43:39.183Z,99.90
2017-06-19T07:46:08.621Z,99.90
2017-06-19T07:48:38.065Z,99.90
2017-06-19T07:51:07.407Z,99.90
2017-06-19T07:53:37.051Z,99.90
2017-06-19T07:56:06.555Z,99.90
2017-06-19T07:58:36.218Z,99.90
2017-06-19T08:01:05.692Z,99.90
2017-06-19T08:03:35.040Z,99.90
2017-06-19T08:06:04.909Z,99.90
2017-06-19T08:08:34.817Z,99.90
2017-06-19T08:11:04.262Z,99.90
2017-06-19T08:13:34.014Z,99.90
2017-06-19T08:16:03.708Z,99.90
2017-06-19T08:18:32.983Z,99.90
2017-06-19T08:21:02.773Z,99.90
2017-06-19T08:23:50.425Z,99.90
2017-06-19T08:26:20.219Z,99.90
2017-06-19T08:28:50.153Z,99.90
2017-06-19T08:31:19.838Z,99.90
2017-06-19T08:33:49.501Z,99.90
2017-06-19T08:36:19.242Z,99.90
2017-06-19T08:38:48.685Z,99.90
2017-06-19T08:41:18.225Z,99.90
2017-06-19T08:43:47.775Z,99.90
2017-06-19T08:46:17.575Z,99.90
2017-06-19T08:48:47.232Z,99.90
2017-06-19T08:51:16.783Z,99.90
2017-06-19T08:53:46.336Z,99.90
2017-06-19T08:56:16.322Z,99.90
2017-06-19T08:58:46.096Z,99.90
2017-06-19T09:01:15.754Z,99.90
2017-06-19T09:03:45.852Z,99.90
2017-06-19T09:06:15.223Z,99.90
2017-06-19T09:08:46.447Z,99.90
2017-06-19T09:11:15.885Z,99.90
2017-06-19T09:13:45.187Z,99.90
2017-06-19T09:16:14.689Z,99.90
2017-06-19T09:18:43.988Z,99.90
2017-06-19T09:21:13.362Z,99.90
2017-06-19T09:26:33.296Z,99.90
2017-06-19T09:29:02.879Z,99.90
2017-06-19T09:31:32.473Z,99.90
2017-06-19T09:34:02.088Z,99.90
2017-06-19T09:36:31.437Z,99.90
2017-06-19T09:39:01.183Z,99.90
2017-06-19T09:41:31.398Z,99.90
2017-06-19T09:44:00.839Z,99.90
2017-06-19T09:46:30.481Z,99.90
2017-06-19T09:49:00.344Z,99.90
2017-06-19T09:51:29.850Z,99.90
2017-06-19T09:53:59.287Z,99.90
2017-06-19T09:56:28.845Z,99.90
2017-06-19T09:58:58.311Z,99.90
2017-06-19T10:01:27.434Z,99.90
2017-06-19T10:03:56.772Z,99.90
2017-06-19T10:06:26.307Z,99.90
2017-06-19T10:08:56.795Z,99.90
2017-06-19T10:11:26.261Z,99.90
2017-06-19T10:13:55.614Z,99.90
2017-06-19T10:16:24.939Z,99.90
2017-06-19T10:18:54.394Z,99.90
2017-06-19T10:21:24.030Z,99.90
2017-06-19T10:23:53.653Z,99.90
2017-06-19T10:26:23.181Z,99.90
2017-06-19T10:28:52.591Z,99.90
2017-06-19T10:31:22.184Z,99.90
2017-06-19T10:33:51.724Z,99.90
2017-06-19T10:36:20.707Z,99.90
2017-06-19T10:38:49.894Z,99.90
2017-06-19T10:41:19.458Z,99.90
2017-06-19T10:43:48.963Z,99.90
2017-06-19T10:46:18.301Z,99.90
2017-06-19T10:48:47.566Z,99.90
2017-06-19T10:51:17.016Z,99.90
2017-06-19T10:53:46.483Z,99.90
2017-06-19T10:56:16.073Z,99.90
2017-06-19T10:58:45.306Z,99.90
2017-06-19T11:01:14.756Z,99.90
2017-06-19T11:03:44.120Z,99.90
2017-06-19T11:06:13.633Z,99.90
2017-06-19T11:08:43.326Z,99.90
2017-06-19T11:11:13.697Z,99.90
2017-06-19T11:13:43.170Z,99.90
2017-06-19T11:16:12.484Z,99.90
2017-06-19T11:18:41.821Z,99.90
2017-06-19T11:21:11.971Z,99.90
2017-06-19T11:23:41.659Z,99.90
2017-06-19T11:26:10.912Z,99.90
2017-06-19T11:28:40.352Z,99.90
2017-06-19T11:31:10.181Z,99.90
2017-06-19T11:33:39.554Z,99.90
2017-06-19T11:36:09.191Z,99.90
2017-06-19T11:38:38.628Z,99.90
2017-06-19T11:41:07.923Z,99.90
2017-06-19T11:43:37.517Z,99.90
2017-06-19T11:46:06.960Z,99.90
2017-06-19T11:48:36.400Z,99.90
2017-06-19T11:51:06.097Z,99.90
2017-06-19T11:53:36.217Z,99.90
2017-06-19T11:56:05.919Z,99.90
2017-06-19T11:58:36.211Z,99.90
2017-06-19T12:01:05.618Z,99.90
2017-06-19T12:03:34.986Z,99.90
2017-06-19T12:06:04.678Z,99.90
2017-06-19T12:08:33.898Z,99.90
2017-06-19T12:11:03.190Z,99.90
2017-06-19T12:13:33.648Z,99.90
2017-06-19T12:16:02.910Z,99.90
2017-06-19T12:18:32.228Z,99.90
2017-06-19T12:21:01.838Z,99.90
2017-06-19T12:23:31.101Z,99.90
2017-06-19T12:26:00.305Z,99.90
2017-06-19T12:28:30.764Z,99.90
2017-06-19T12:31:00.155Z,99.90
2017-06-19T12:33:29.558Z,99.90
2017-06-19T12:35:58.971Z,99.90
2017-06-19T12:38:28.287Z,99.90
2017-06-19T12:40:57.917Z,99.90
2017-06-19T12:43:27.467Z,99.90
2017-06-19T12:45:57.192Z,99.90
2017-06-19T12:48:26.363Z,99.90
2017-06-19T12:50:55.870Z,99.90
2017-06-19T12:53:25.088Z,99.90
2017-06-19T12:55:54.515Z,99.90
2017-06-19T12:58:24.299Z,99.90
2017-06-19T13:00:53.619Z,99.90
2017-06-19T13:03:23.053Z,99.90
2017-06-19T13:05:52.391Z,99.90
2017-06-19T13:08:21.948Z,99.90
2017-06-19T13:10:51.672Z,99.90
2017-06-19T13:13:21.096Z,99.90
2017-06-19T13:15:51.736Z,99.90
2017-06-19T13:18:21.318Z,99.90
2017-06-19T13:20:50.865Z,99.90
2017-06-19T13:23:20.221Z,99.90
2017-06-19T13:25:49.622Z,99.90
2017-06-19T13:28:19.047Z,99.90
2017-06-19T13:30:48.410Z,99.90
2017-06-19T13:33:17.959Z,99.90
2017-06-19T13:35:46.988Z,99.90
2017-06-19T13:38:16.900Z,99.90
2017-06-19T13:40:46.407Z,99.90
2017-06-19T13:43:15.804Z,99.90
2017-06-19T13:45:45.152Z,99.90
2017-06-19T13:48:14.844Z,99.90
2017-06-19T13:50:44.371Z,99.90
2017-06-19T13:53:13.676Z,99.90
2017-06-19T13:55:43.097Z,99.90
2017-06-19T13:58:13.253Z,99.90
2017-06-19T14:00:42.699Z,99.90
2017-06-19T14:03:12.117Z,99.90
2017-06-19T14:05:41.508Z,99.90
2017-06-19T14:08:11.155Z,99.90
2017-06-19T14:10:40.395Z,99.90
2017-06-19T14:13:09.943Z,99.90
2017-06-19T14:15:39.313Z,99.90
2017-06-19T14:18:09.708Z,99.90
2017-06-19T14:20:39.395Z,99.90
2017-06-19T14:23:08.915Z,99.90
2017-06-19T14:25:38.703Z,99.90
2017-06-19T14:28:08.977Z,99.70
2017-06-19T14:30:38.133Z,99.60
2017-06-19T14:33:07.854Z,99.90
2017-06-19T14:35:37.364Z,99.90
2017-06-19T14:38:07.008Z,99.90
2017-06-19T14:40:36.559Z,99.90
2017-06-19T14:43:05.889Z,99.80
2017-06-19T14:45:35.217Z,98.80
2017-06-19T14:48:04.552Z,97.00
2017-06-19T14:50:33.941Z,93.80
2017-06-19T14:53:03.138Z,94.70
2017-06-19T14:55:32.776Z,92.60
2017-06-19T14:58:03.135Z,87.30
2017-06-19T15:00:32.488Z,87.30
2017-06-19T15:03:01.792Z,84.50
2017-06-19T15:05:31.131Z,80.70
2017-06-19T15:08:00.719Z,80.60
2017-06-19T15:10:30.500Z,81.90
2017-06-19T15:12:59.649Z,78.80
2017-06-19T15:15:28.481Z,75.00
2017-06-19T15:17:57.663Z,66.10
2017-06-19T15:20:29.866Z,60.40
2017-06-19T15:22:59.205Z,53.20
2017-06-19T15:25:28.109Z,43.60
2017-06-19T15:27:57.343Z,36.20
2017-06-19T15:30:26.623Z,37.00
2017-06-19T15:32:56.104Z,28.50
2017-06-19T15:35:25.430Z,25.80
2017-06-19T15:37:54.900Z,26.20
2017-06-19T15:40:24.314Z,26.00
2017-06-19T15:42:53.650Z,23.10
2017-06-19T15:45:23.402Z,21.60
2017-06-19T15:47:53.136Z,23.80
2017-06-19T15:50:22.730Z,22.60
2017-06-19T15:52:52.316Z,26.80
2017-06-19T15:55:21.801Z,25.20
2017-06-19T15:57:51.197Z,23.80
2017-06-19T16:00:20.468Z,23.50
2017-06-19T16:02:50.003Z,20.50
2017-06-19T16:05:19.619Z,24.30
2017-06-19T16:07:49.295Z,22.00
2017-06-19T16:10:18.701Z,19.40
2017-06-19T16:12:48.404Z,20.00
2017-06-19T16:15:17.943Z,19.60
2017-06-19T16:17:47.440Z,18.90
2017-06-19T16:20:17.114Z,20.40
2017-06-19T16:22:47.455Z,17.00
2017-06-19T16:25:16.861Z,18.90
2017-06-19T16:27:47.183Z,18.30
2017-06-19T16:30:16.734Z,18.50
2017-06-19T16:32:45.875Z,16.40
2017-06-19T16:35:15.328Z,16.70
2017-06-19T16:37:44.804Z,16.20
2017-06-19T16:40:14.296Z,15.00
2017-06-19T16:42:43.559Z,14.90
2017-06-19T16:45:13.168Z,15.80
2017-06-19T16:47:42.596Z,16.20
2017-06-19T16:50:11.831Z,15.70
2017-06-19T16:52:41.384Z,13.00
2017-06-19T16:55:10.738Z,13.50
2017-06-19T16:57:40.183Z,16.20
2017-06-19T17:00:10.574Z,14.70
2017-06-19T17:02:40.164Z,14.70
2017-06-19T17:05:10.392Z,14.00
2017-06-19T17:07:39.812Z,13.70
2017-06-19T17:10:08.882Z,13.30
2017-06-19T17:12:38.084Z,14.80
2017-06-19T17:15:07.425Z,13.20
2017-06-19T17:17:36.526Z,13.50
2017-06-19T17:20:05.612Z,16.30
2017-06-19T17:22:34.955Z,16.80
2017-06-19T17:25:05.193Z,16.60
2017-06-19T17:27:34.423Z,17.60
2017-06-19T17:30:03.673Z,19.20
2017-06-19T17:32:33.078Z,16.90
2017-06-19T17:35:02.527Z,18.00
2017-06-19T17:37:31.692Z,18.20
2017-06-19T17:40:00.810Z,17.40
2017-06-19T17:42:29.951Z,17.40
2017-06-19T17:44:59.335Z,16.40
2017-06-19T17:47:29.507Z,16.70
2017-06-19T17:49:58.685Z,16.50
2017-06-19T17:52:27.861Z,15.80
2017-06-19T17:54:57.386Z,16.90
2017-06-19T17:57:26.828Z,16.20
2017-06-19T17:59:55.895Z,14.30
2017-06-19T18:02:25.310Z,15.30
2017-06-19T18:04:55.614Z,17.30
2017-06-19T18:07:24.623Z,15.30
2017-06-19T18:09:54.033Z,17.50
2017-06-19T18:12:23.618Z,19.00
2017-06-19T18:14:52.751Z,18.80
2017-06-19T18:17:21.902Z,16.50
2017-06-19T18:19:51.254Z,17.80
2017-06-19T18:22:20.580Z,17.60
2017-06-19T18:24:49.807Z,17.30
2017-06-19T18:27:20.242Z,13.80
2017-06-19T18:29:49.365Z,15.30
2017-06-19T18:32:18.648Z,13.00
2017-06-19T18:34:48.089Z,13.90
2017-06-19T18:37:17.148Z,14.20
2017-06-19T18:39:46.342Z,15.80
2017-06-19T18:42:15.727Z,15.80
2017-06-19T18:44:45.740Z,15.60
2017-06-19T18:47:15.074Z,15.50
2017-06-19T18:49:44.473Z,15.70
2017-06-19T18:52:13.908Z,15.10
2017-06-19T18:54:42.938Z,15.20
2017-06-19T18:57:12.293Z,14.90
2017-06-19T18:59:41.531Z,14.80
2017-06-19T19:02:10.866Z,15.50
2017-06-19T19:04:40.553Z,13.80
2017-06-19T19:07:09.981Z,14.10
2017-06-19T19:09:41.453Z,15.50
2017-06-19T19:12:10.526Z,15.30
2017-06-19T19:14:39.750Z,17.50
2017-06-19T19:17:09.025Z,19.20
2017-06-19T19:19:38.233Z,19.70
2017-06-19T19:22:07.382Z,18.60
2017-06-19T19:24:37.249Z,17.80
2017-06-19T19:27:06.777Z,18.80
2017-06-19T19:29:37.378Z,19.40
2017-06-19T19:32:07.091Z,16.00
2017-06-19T19:34:36.431Z,17.40
2017-06-19T19:37:05.200Z,15.10
2017-06-19T19:39:34.628Z,16.60
2017-06-19T19:42:03.870Z,18.90
2017-06-19T19:44:33.425Z,18.10
2017-06-19T19:47:02.694Z,20.40
2017-06-19T19:49:32.060Z,18.40
2017-06-19T19:52:02.184Z,23.20
2017-06-19T19:54:31.504Z,23.80
2017-06-19T19:57:00.973Z,24.00
2017-06-19T19:59:30.503Z,25.60
2017-06-19T20:01:59.893Z,27.50
2017-06-19T20:04:29.782Z,24.40
2017-06-19T20:06:59.611Z,25.70
2017-06-19T20:09:29.576Z,31.90
2017-06-19T20:11:59.370Z,31.10
2017-06-19T20:14:28.616Z,36.80
2017-06-19T20:16:57.949Z,33.60
2017-06-19T20:19:27.404Z,46.00
2017-06-19T20:21:56.091Z,38.90
2017-06-19T20:24:25.656Z,34.90
2017-06-19T20:26:54.881Z,41.60
2017-06-19T20:29:24.476Z,41.30
2017-06-19T20:31:55.274Z,40.30
2017-06-19T20:34:24.823Z,40.00
2017-06-19T20:36:54.198Z,40.70
2017-06-19T20:39:23.823Z,38.80
2017-06-19T20:41:53.403Z,50.60
2017-06-19T20:44:22.618Z,47.20
2017-06-19T20:46:52.093Z,50.10
2017-06-19T20:49:21.524Z,44.30
2017-06-19T20:51:50.901Z,48.30
2017-06-19T20:54:20.409Z,51.10
2017-06-19T20:56:49.761Z,44.20
2017-06-19T20:59:19.209Z,43.50
2017-06-19T21:01:48.978Z,51.70
2017-06-19T21:04:18.698Z,45.10
2017-06-19T21:06:48.172Z,45.70
2017-06-19T21:09:17.787Z,50.60
2017-06-19T21:11:47.411Z,47.80
2017-06-19T21:14:16.125Z,48.40
2017-06-19T21:16:44.986Z,49.60
2017-06-19T21:19:14.218Z,47.40
2017-06-19T21:21:43.573Z,48.00
2017-06-19T21:24:13.023Z,49.80
2017-06-19T21:26:42.459Z,50.10
2017-06-19T21:29:12.895Z,50.20
2017-06-19T21:31:42.523Z,50.40
2017-06-19T21:34:13.014Z,49.80
2017-06-19T21:36:42.777Z,45.60
2017-06-19T21:39:11.964Z,46.40
2017-06-19T21:41:41.297Z,48.40
2017-06-19T21:44:10.777Z,54.60
2017-06-19T21:46:40.199Z,46.90
2017-06-19T21:49:09.766Z,45.60
2017-06-19T21:51:39.108Z,54.60
2017-06-19T21:54:08.676Z,51.10
2017-06-19T21:56:38.316Z,51.90
2017-06-19T21:59:07.535Z,46.10
2017-06-19T22:01:36.968Z,44.90
2017-06-19T22:04:07.121Z,45.70
2017-06-19T22:06:36.624Z,45.60
2017-06-19T22:09:06.253Z,49.90
2017-06-19T22:11:35.524Z,45.40
2017-06-19T22:14:04.828Z,54.30
2017-06-19T22:16:34.107Z,46.30
2017-06-19T22:19:03.444Z,47.10
2017-06-19T22:21:38.092Z,44.30
2017-06-19T22:24:07.822Z,45.00
2017-06-19T22:26:37.465Z,42.60
2017-06-19T22:29:06.739Z,45.10
2017-06-19T22:31:36.018Z,46.80
2017-06-19T22:34:05.276Z,40.80
2017-06-19T22:36:35.896Z,45.50
2017-06-19T22:39:05.428Z,43.90
2017-06-19T22:41:34.813Z,43.80
2017-06-19T22:44:04.506Z,41.10
2017-06-19T22:46:33.902Z,41.50
2017-06-19T22:49:04.276Z,47.10
2017-06-19T22:51:33.867Z,47.10
2017-06-19T22:54:03.280Z,44.00
2017-06-19T22:56:32.885Z,43.90
2017-06-19T22:59:02.353Z,44.70
2017-06-19T23:01:31.909Z,46.00
2017-06-19T23:04:01.449Z,43.60
2017-06-19T23:06:30.794Z,47.00
2017-06-19T23:09:00.115Z,46.90
2017-06-19T23:11:29.792Z,48.00
2017-06-19T23:13:59.339Z,50.30
2017-06-19T23:16:28.402Z,49.30
2017-06-19T23:18:57.812Z,49.80
2017-06-19T23:21:27.359Z,48.60
2017-06-19T23:23:56.711Z,50.10
2017-06-19T23:26:26.220Z,47.70
2017-06-19T23:28:55.993Z,48.00
2017-06-19T23:31:26.324Z,47.20
2017-06-19T23:33:55.690Z,46.50
2017-06-19T23:36:25.402Z,47.50
2017-06-19T23:38:55.994Z,47.80
2017-06-19T23:41:25.239Z,49.20
2017-06-19T23:43:54.530Z,46.40
2017-06-19T23:46:24.022Z,49.50
2017-06-19T23:48:53.278Z,48.30
2017-06-19T23:51:22.872Z,49.00
2017-06-19T23:53:52.380Z,48.20
2017-06-19T23:56:22.647Z,47.40
2017-06-19T23:58:52.394Z,47.40
